Terminal Aerodrome Forecast
Issued by NWS Birmingham, AL

Home | Current Version | Previous Version | Text Only | Print | Product List | Glossary On
Versions: 1 2 3 4 5 6 7 8 9 10 11 12 13 14 15 16 17
000
FTUS44 KBMX 200700 AAA
TAFBHM
TAF AMD
KBHM 200718Z 2007/2106 36007KT P6SM -RA SCT005 OVC012
      TEMPO 2007/2009 3SM -RA BKN005
     FM200900 36003KT P6SM OVC050
     FM201800 36004KT P6SM BKN080=

USA.gov is the U.S. government's official web portal to all federal, state and local government web resources and services.